Hlavní strana
METAR-TAF:

METAR-TAF

Letiště :

Logan County Airport

Lincoln, Illinois, Spojené státy americké

zeměpisná šířka: 40-09-31N, zeměpisná délka: 089-20-06W, výška: 182 m

Aktuální stav počasí

Zpráva byla vytvořena před 26 minutami, v 21:15 UTC
Západní vítr 8 kt s nárazy do 14 kt, proměnlivý mezi západojihozápadním a severozápadním
Teplota 1°C
Vlhkost vzduchu 93%
Tlak 1008 hPa
Viditelnost: 11.3 km
Zataženo ve výšce 900 ft

METAR: KAAA 162115Z AUTO 27008G14KT 240V310 7SM OVC009 01/00 A2977 RMK AO2 T00121005

Čas: 15:41 (21:41 UTC)


TAF: chybějící

Stav a předpovědi počasí z více než 4 000 letišť (zprávy METAR a TAF).

Červené a žluté tečky na mapě představují dostupné meteorologické stanice.

Když kurzor umístíte na tečku, zobrazí se název stanice.

Pak kliknutím zobrazíte stav a předpověď počasí.

Chcete-li změnit mapu, kliknutím na zelené tlačítko se znaménkem +mapu přiblížíte, kliknutím na zelené tlačítko se znaménkem – mapu oddálíte a kliknutím na zelené šipky přejdete na sousední mapy.


METAR-TAF: